Time;durP1;ratioP1;P1;durP2;ratioP2;P2;SDS_P1;SDS_P2;PMS_P1;PMS_P2;Temp;Humidity;BMP_temperature;BMP_pressure;BME280_temperature;BME280_humidity;BME280_pressure;Samples;Min_cycle;Max_cycle;Signal;HPM_P1;HPM_P2
2023/01/08 00:01:11;;;;;;;35.42;19.85;;;5.00;99.90;;;;;;4958910;28;20428;-91
2023/01/08 00:03:38;;;;;;;24.92;16.65;;;5.00;99.90;;;;;;4976101;28;20100;-91
2023/01/08 00:06:06;;;;;;;25.35;15.88;;;5.00;99.90;;;;;;4958617;28;20030;-92
2023/01/08 00:08:32;;;;;;;30.13;17.02;;;5.00;99.90;;;;;;4958649;28;20037;-88
2023/01/08 00:10:58;;;;;;;28.55;16.25;;;5.00;99.90;;;;;;4958302;28;20031;-89
2023/01/08 00:13:24;;;;;;;27.23;16.23;;;5.10;99.90;;;;;;4958701;28;20363;-89
2023/01/08 00:15:50;;;;;;;28.17;16.85;;;5.10;99.90;;;;;;5076568;28;20083;-89
2023/01/08 00:18:15;;;;;;;26.70;15.85;;;5.10;99.90;;;;;;4975009;28;20086;-90
2023/01/08 00:20:42;;;;;;;25.27;15.40;;;5.10;99.90;;;;;;4958523;28;20038;-90
2023/01/08 00:23:16;;;;;;;25.35;16.35;;;5.20;99.90;;;;;;4958633;28;20126;-90
2023/01/08 00:25:41;;;;;;;24.80;15.27;;;5.10;99.90;;;;;;4958434;28;20054;-89
2023/01/08 00:28:08;;;;;;;23.13;14.20;;;5.10;99.90;;;;;;4958513;28;20053;-89
2023/01/08 00:30:34;;;;;;;20.10;12.48;;;5.10;99.90;;;;;;4958473;28;20038;-88
2023/01/08 00:33:00;;;;;;;18.33;12.77;;;5.20;99.90;;;;;;4974660;28;20023;-89
2023/01/08 00:35:25;;;;;;;21.80;14.27;;;5.10;99.90;;;;;;4958371;28;20034;-88
2023/01/08 00:37:51;;;;;;;30.88;17.13;;;5.10;99.90;;;;;;4958721;28;20042;-89
2023/01/08 00:40:16;;;;;;;24.08;15.25;;;5.10;99.90;;;;;;4958661;28;20508;-88
2023/01/08 00:42:42;;;;;;;23.25;14.52;;;4.90;99.90;;;;;;4958354;28;20475;-89
2023/01/08 00:45:08;;;;;;;25.10;15.43;;;4.80;99.90;;;;;;4958624;28;20030;-89
2023/01/08 00:47:34;;;;;;;22.10;13.32;;;4.60;99.90;;;;;;4958248;28;20129;-89
2023/01/08 00:49:59;;;;;;;33.42;17.35;;;4.60;99.90;;;;;;4974693;28;20096;-89
2023/01/08 00:52:25;;;;;;;36.15;18.35;;;4.60;99.90;;;;;;4958344;28;20031;-90
2023/01/08 00:54:51;;;;;;;27.40;16.65;;;4.70;99.90;;;;;;4986611;28;20017;-89
2023/01/08 00:57:17;;;;;;;27.52;15.98;;;4.70;99.90;;;;;;4995360;28;20029;-88
2023/01/08 00:59:42;;;;;;;30.17;16.00;;;4.70;99.90;;;;;;4994359;28;20110;-88
2023/01/08 01:02:08;;;;;;;25.60;16.35;;;4.70;99.90;;;;;;4977513;28;20117;-89
2023/01/08 01:04:34;;;;;;;26.50;15.45;;;4.70;99.90;;;;;;4959398;28;20062;-90
2023/01/08 01:06:59;;;;;;;24.27;16.00;;;4.80;99.90;;;;;;4957984;28;20031;-88
2023/01/08 01:09:25;;;;;;;28.65;14.30;;;4.70;99.90;;;;;;4959387;28;20038;-88
2023/01/08 01:11:51;;;;;;;25.80;14.13;;;4.80;99.90;;;;;;4960585;28;20038;-89
2023/01/08 01:14:16;;;;;;;32.70;15.77;;;4.90;99.90;;;;;;4959958;28;20462;-89
2023/01/08 01:16:42;;;;;;;27.00;16.30;;;4.80;99.90;;;;;;4959990;28;20027;-89
2023/01/08 01:19:08;;;;;;;26.67;15.18;;;4.90;99.90;;;;;;4959273;28;20035;-89
2023/01/08 01:21:34;;;;;;;23.17;14.77;;;4.80;99.90;;;;;;4957625;28;20121;-90
2023/01/08 01:24:02;;;;;;;26.20;16.02;;;4.80;99.90;;;;;;4958618;28;20476;-88
2023/01/08 01:26:28;;;;;;;25.90;15.02;;;4.70;99.90;;;;;;4958473;28;20038;-88
2023/01/08 01:28:56;;;;;;;22.75;14.70;;;4.60;99.90;;;;;;4974451;28;20030;-89
2023/01/08 01:31:23;;;;;;;25.27;15.85;;;4.50;99.90;;;;;;4958024;28;20027;-88
2023/01/08 01:33:50;;;;;;;27.83;15.80;;;4.50;99.90;;;;;;4974513;28;20378;-89
2023/01/08 01:36:17;;;;;;;27.83;16.13;;;4.40;99.90;;;;;;4957788;28;20030;-88
2023/01/08 01:38:45;;;;;;;25.48;15.45;;;4.40;99.90;;;;;;5075714;28;20035;-89
2023/01/08 01:41:25;;;;;;;27.10;16.50;;;4.40;99.90;;;;;;4973604;28;20478;-88
2023/01/08 01:43:51;;;;;;;27.13;15.73;;;4.50;99.90;;;;;;4974042;28;20070;-89
2023/01/08 01:46:34;;;;;;;27.08;16.52;;;4.50;99.90;;;;;;4957914;28;20027;-89
2023/01/08 01:49:05;;;;;;;27.80;16.13;;;4.60;99.90;;;;;;4973720;28;20031;-89
2023/01/08 01:51:33;;;;;;;27.98;17.15;;;4.60;99.90;;;;;;4973596;28;20034;-88
2023/01/08 01:54:02;;;;;;;26.85;15.68;;;4.70;99.90;;;;;;4957310;28;20027;-89
2023/01/08 01:56:29;;;;;;;25.02;14.60;;;4.70;99.90;;;;;;4957496;28;20482;-88
2023/01/08 01:58:55;;;;;;;24.33;15.38;;;4.70;99.90;;;;;;4957453;28;20031;-89
2023/01/08 02:01:23;;;;;;;25.75;15.63;;;4.70;99.90;;;;;;4957506;28;20084;-90
2023/01/08 02:03:48;;;;;;;24.95;13.98;;;4.80;99.90;;;;;;4957799;28;20512;-89
2023/01/08 02:06:30;;;;;;;23.20;14.18;;;4.80;99.90;;;;;;4957212;28;20031;-90
2023/01/08 02:09:34;;;;;;;23.23;13.23;;;4.80;99.90;;;;;;4957477;28;20031;-89
2023/01/08 02:12:15;;;;;;;22.42;13.13;;;4.80;99.90;;;;;;4957864;28;20089;-89
2023/01/08 02:15:05;;;;;;;21.85;12.60;;;4.90;99.90;;;;;;4956872;28;20038;-90
2023/01/08 02:17:56;;;;;;;21.58;12.80;;;4.90;99.90;;;;;;5057828;28;20125;-89
2023/01/08 02:20:21;;;;;;;19.75;12.73;;;5.00;99.90;;;;;;4956790;28;20142;-88
2023/01/08 02:23:12;;;;;;;19.05;12.52;;;5.00;99.90;;;;;;4956748;28;20062;-88
2023/01/08 02:26:08;;;;;;;21.35;12.73;;;5.10;99.90;;;;;;5057626;28;20125;-88
2023/01/08 02:28:42;;;;;;;24.40;13.38;;;5.10;99.90;;;;;;5057294;28;20168;-88
2023/01/08 02:31:08;;;;;;;26.27;13.82;;;5.10;99.90;;;;;;4956636;28;20042;-89
2023/01/08 02:33:34;;;;;;;22.08;13.38;;;5.10;99.90;;;;;;4972538;28;20553;-89
2023/01/08 02:36:38;;;;;;;22.35;13.90;;;5.00;99.90;;;;;;4959782;28;20031;-89
2023/01/08 02:39:19;;;;;;;24.63;14.10;;;5.00;99.90;;;;;;5057733;28;20125;-89
2023/01/08 02:41:45;;;;;;;;;;;4.90;99.90;;;;;;4957357;28;20023;-89
2023/01/08 02:44:17;;;;;;;25.55;13.75;;;4.80;99.90;;;;;;5057207;28;19929;-90
2023/01/08 02:46:43;;;;;;;23.38;13.88;;;4.80;99.90;;;;;;5074358;28;20486;-90
2023/01/08 02:49:12;;;;;;;23.95;13.95;;;4.80;99.90;;;;;;4956339;28;20038;-90
2023/01/08 02:51:50;;;;;;;24.48;14.48;;;4.70;99.90;;;;;;4956512;28;20027;-90
2023/01/08 02:54:21;;;;;;;29.23;14.60;;;4.60;99.90;;;;;;4956372;28;20061;-89
2023/01/08 02:57:02;;;;;;;24.98;13.70;;;4.60;99.90;;;;;;4956647;28;20063;-91
2023/01/08 02:59:32;;;;;;;19.60;12.27;;;4.60;99.90;;;;;;4972790;28;20035;-90
2023/01/08 03:02:00;;;;;;;21.63;13.20;;;4.70;99.90;;;;;;4956489;28;20126;-89
2023/01/08 03:04:27;;;;;;;21.27;12.60;;;4.70;99.90;;;;;;4956075;28;20031;-91
2023/01/08 03:06:53;;;;;;;23.67;13.00;;;4.80;99.90;;;;;;4956203;28;20522;-89
2023/01/08 03:09:19;;;;;;;21.98;12.07;;;4.80;99.90;;;;;;4956539;28;20031;-90
2023/01/08 03:12:15;;;;;;;22.75;12.82;;;4.80;99.90;;;;;;4956256;28;20038;-91
2023/01/08 03:14:59;;;;;;;24.02;12.23;;;4.80;99.90;;;;;;4956359;28;20547;-90
2023/01/08 03:17:37;;;;;;;18.75;11.30;;;4.80;99.90;;;;;;4956436;28;20086;-90
2023/01/08 03:20:13;;;;;;;21.00;11.70;;;4.90;99.90;;;;;;4956545;28;20133;-90
2023/01/08 03:22:41;;;;;;;21.63;11.77;;;4.80;99.90;;;;;;5073510;28;20099;-90
2023/01/08 03:25:08;;;;;;;19.60;12.43;;;4.80;99.90;;;;;;4956140;28;20035;-91
2023/01/08 03:27:40;;;;;;;18.48;11.65;;;4.80;99.90;;;;;;4956063;28;20030;-89
2023/01/08 03:30:08;;;;;;;20.08;12.57;;;4.90;99.90;;;;;;4956136;28;20535;-90
2023/01/08 03:32:36;;;;;;;22.98;13.90;;;4.90;99.90;;;;;;4956023;28;20046;-90
2023/01/08 03:35:04;;;;;;;27.05;13.50;;;4.90;99.90;;;;;;5073500;28;20030;-90
2023/01/08 03:37:34;;;;;;;21.75;13.27;;;4.90;99.90;;;;;;4971954;28;20502;-90
2023/01/08 03:40:08;;;;;;;22.47;13.77;;;4.80;99.90;;;;;;5073947;28;20092;-89
2023/01/08 03:42:34;;;;;;;23.83;13.60;;;4.90;99.90;;;;;;4971886;28;20058;-89
2023/01/08 03:45:00;;;;;;;22.90;13.50;;;4.80;99.90;;;;;;4974243;28;20027;-90
2023/01/08 03:47:31;;;;;;;23.10;12.93;;;4.80;99.90;;;;;;4959223;28;20038;-89
2023/01/08 03:50:01;;;;;;;19.08;12.52;;;4.80;99.90;;;;;;4959109;28;20034;-89
2023/01/08 03:52:29;;;;;;;24.38;13.27;;;4.80;99.90;;;;;;4959076;28;20038;-90
2023/01/08 03:54:55;;;;;;;23.27;14.35;;;4.80;99.90;;;;;;4958989;28;20042;-89
2023/01/08 03:57:20;;;;;;;30.52;14.02;;;4.80;99.90;;;;;;4958874;28;20027;-89
2023/01/08 03:59:46;;;;;;;21.77;13.27;;;4.90;99.90;;;;;;4973485;28;20042;-90
2023/01/08 04:02:12;;;;;;;22.80;12.65;;;4.80;99.90;;;;;;4959223;28;20027;-89
2023/01/08 04:04:38;;;;;;;25.50;13.13;;;4.90;99.90;;;;;;4958703;28;20027;-89
2023/01/08 04:07:04;;;;;;;22.90;12.57;;;4.90;99.90;;;;;;4974528;28;20058;-91
2023/01/08 04:09:29;;;;;;;23.52;13.32;;;4.90;99.90;;;;;;4958275;28;20046;-89
2023/01/08 04:11:55;;;;;;;21.27;12.75;;;4.90;99.90;;;;;;4958572;28;20027;-90
2023/01/08 04:14:22;;;;;;;24.42;13.90;;;4.90;99.90;;;;;;4943206;28;20096;-90
2023/01/08 04:16:48;;;;;;;26.13;14.60;;;4.90;99.90;;;;;;4959202;28;20031;-90
2023/01/08 04:19:13;;;;;;;28.17;14.65;;;4.90;99.90;;;;;;4960179;28;20137;-91
2023/01/08 04:21:44;;;;;;;27.35;14.63;;;4.80;99.90;;;;;;4960099;28;20030;-90
2023/01/08 04:24:13;;;;;;;33.17;16.30;;;4.80;99.90;;;;;;4960134;28;20053;-91
2023/01/08 04:26:39;;;;;;;25.05;13.75;;;4.70;99.90;;;;;;4959669;28;20038;-91
2023/01/08 04:29:04;;;;;;;23.48;13.73;;;4.70;99.90;;;;;;4959619;28;20470;-90
2023/01/08 04:31:30;;;;;;;23.30;13.57;;;4.60;99.90;;;;;;4959386;28;20375;-89
2023/01/08 04:33:56;;;;;;;28.83;15.25;;;4.60;99.90;;;;;;4958851;28;20033;-91
2023/01/08 04:36:22;;;;;;;28.45;14.48;;;4.60;99.90;;;;;;4958659;28;20027;-89
2023/01/08 04:38:47;;;;;;;27.45;14.40;;;4.60;99.90;;;;;;4958910;28;20029;-90
2023/01/08 04:41:13;;;;;;;21.23;13.68;;;4.60;99.90;;;;;;4959302;28;20035;-90
2023/01/08 04:43:39;;;;;;;23.20;14.48;;;4.60;99.90;;;;;;4959485;28;20031;-91
2023/01/08 04:46:07;;;;;;;24.42;14.20;;;4.60;99.90;;;;;;4959571;28;20023;-91
2023/01/08 04:48:34;;;;;;;24.42;14.90;;;4.60;99.90;;;;;;4961147;28;20095;-92
2023/01/08 04:51:01;;;;;;;25.63;14.18;;;4.50;99.90;;;;;;4960311;28;20039;-92
2023/01/08 04:53:27;;;;;;;26.27;14.73;;;4.50;99.90;;;;;;4975602;28;20035;-91
2023/01/08 04:55:53;;;;;;;26.15;14.20;;;4.50;99.90;;;;;;4957273;28;20076;-91
2023/01/08 04:58:19;;;;;;;22.02;13.15;;;4.60;99.90;;;;;;4958522;28;20031;-91
2023/01/08 05:00:45;;;;;;;21.05;12.23;;;4.60;99.90;;;;;;4958189;28;20474;-92
2023/01/08 05:03:11;;;;;;;20.52;12.48;;;4.60;99.90;;;;;;4958293;28;20088;-91
2023/01/08 05:05:37;;;;;;;17.15;10.68;;;4.60;99.90;;;;;;4958128;28;20030;-91
2023/01/08 05:08:03;;;;;;;19.05;10.23;;;4.60;99.90;;;;;;4958085;28;20535;-91
2023/01/08 05:10:29;;;;;;;16.95;10.23;;;4.80;99.90;;;;;;4958042;28;20039;-91
2023/01/08 05:12:59;;;;;;;17.83;10.38;;;4.90;99.90;;;;;;4957020;28;20038;-92
2023/01/08 05:15:25;;;;;;;18.08;11.43;;;5.00;99.90;;;;;;4956742;28;20437;-91
2023/01/08 05:18:19;;;;;;;19.75;11.13;;;5.00;99.90;;;;;;4973073;28;20449;-91
2023/01/08 05:20:44;;;;;;;16.67;11.02;;;4.90;99.90;;;;;;4956540;28;20035;-91
2023/01/08 05:23:47;;;;;;;17.92;11.23;;;4.90;99.90;;;;;;4956513;28;20041;-91
2023/01/08 05:26:14;;;;;;;17.58;11.68;;;4.90;99.90;;;;;;4956612;28;20035;-92
2023/01/08 05:28:40;;;;;;;18.33;11.55;;;4.90;99.90;;;;;;4972474;28;20034;-91
2023/01/08 05:31:05;;;;;;;16.98;10.70;;;4.80;99.90;;;;;;4972759;28;20035;-91
2023/01/08 05:33:31;;;;;;;17.83;10.90;;;4.80;99.90;;;;;;4956357;28;20171;-90
2023/01/08 05:35:57;;;;;;;18.30;10.18;;;4.90;99.90;;;;;;4956402;28;20118;-90
2023/01/08 05:38:22;;;;;;;21.83;11.98;;;4.90;99.90;;;;;;4972494;28;20525;-91
2023/01/08 05:40:51;;;;;;;18.92;11.55;;;4.90;99.90;;;;;;4956043;28;20066;-90
2023/01/08 05:43:17;;;;;;;19.42;11.93;;;4.90;99.90;;;;;;4972353;28;20038;-91
2023/01/08 05:45:43;;;;;;;18.55;11.18;;;4.90;99.90;;;;;;4956287;28;20030;-90
2023/01/08 05:48:08;;;;;;;18.23;10.57;;;4.90;99.90;;;;;;4956128;28;20410;-90
2023/01/08 05:50:34;;;;;;;20.58;11.98;;;4.90;99.90;;;;;;4956394;28;20485;-90
2023/01/08 05:53:00;;;;;;;19.73;11.48;;;5.00;99.90;;;;;;4956229;28;20031;-91
2023/01/08 05:55:26;;;;;;;22.80;12.48;;;4.90;99.90;;;;;;4956307;28;20118;-91
2023/01/08 05:57:52;;;;;;;19.92;11.55;;;5.00;99.90;;;;;;4956291;28;20439;-91
2023/01/08 06:00:17;;;;;;;22.45;13.18;;;4.90;99.90;;;;;;4972250;28;20471;-91
2023/01/08 06:02:47;;;;;;;20.23;11.98;;;4.90;99.90;;;;;;4955745;28;20038;-90
2023/01/08 06:05:13;;;;;;;20.85;11.05;;;4.90;99.90;;;;;;4971993;28;20097;-91
2023/01/08 06:07:38;;;;;;;20.52;12.48;;;4.90;99.90;;;;;;4971694;28;20043;-91
2023/01/08 06:10:04;;;;;;;17.10;10.50;;;4.90;99.90;;;;;;4972205;28;20035;-91
2023/01/08 06:12:30;;;;;;;19.63;10.73;;;5.00;99.90;;;;;;4972210;28;20057;-91
2023/01/08 06:14:55;;;;;;;20.23;10.68;;;5.10;99.90;;;;;;4972051;28;20034;-91
2023/01/08 06:17:21;;;;;;;15.70;9.95;;;5.10;99.90;;;;;;4956783;28;20143;-92
2023/01/08 06:19:47;;;;;;;17.95;9.63;;;5.20;99.90;;;;;;4956836;28;20039;-91
2023/01/08 06:22:13;;;;;;;19.00;10.25;;;5.20;99.90;;;;;;4972288;28;20546;-91
2023/01/08 06:24:38;;;;;;;16.52;9.50;;;5.20;99.90;;;;;;4956325;28;20506;-91
2023/01/08 06:27:04;;;;;;;17.10;10.40;;;5.20;99.90;;;;;;4956381;28;20042;-92
2023/01/08 06:29:30;;;;;;;19.52;10.48;;;5.30;99.90;;;;;;4955717;28;20459;-91
2023/01/08 06:31:55;;;;;;;18.67;9.82;;;5.20;99.90;;;;;;4971549;28;20027;-91
2023/01/08 06:34:21;;;;;;;16.50;10.25;;;5.30;99.90;;;;;;4955502;28;20426;-90
2023/01/08 06:36:47;;;;;;;17.75;10.20;;;5.30;99.90;;;;;;4971638;28;20069;-90
2023/01/08 06:39:12;;;;;;;17.77;10.82;;;5.30;99.90;;;;;;4955773;28;20031;-91
2023/01/08 06:41:38;;;;;;;15.88;9.60;;;5.30;99.90;;;;;;4971431;28;20035;-91
2023/01/08 06:44:04;;;;;;;22.55;11.13;;;5.30;99.90;;;;;;4955073;28;20374;-90
2023/01/08 06:46:29;;;;;;;22.05;11.23;;;5.30;99.90;;;;;;4955566;28;20031;-91
2023/01/08 06:48:55;;;;;;;25.42;12.15;;;5.30;99.90;;;;;;4955411;28;20463;-90
2023/01/08 06:51:20;;;;;;;19.35;11.77;;;5.30;99.90;;;;;;4955677;28;20433;-90
2023/01/08 06:53:49;;;;;;;25.67;13.38;;;5.30;99.90;;;;;;4972667;28;20027;-90
2023/01/08 06:56:15;;;;;;;22.95;12.02;;;5.30;99.90;;;;;;4955328;28;20475;-90
2023/01/08 06:59:14;;;;;;;31.58;12.43;;;5.30;99.90;;;;;;4971690;28;20038;-90
2023/01/08 07:01:43;;;;;;;22.50;11.82;;;5.30;99.90;;;;;;4971335;28;20559;-90
2023/01/08 07:04:09;;;;;;;20.42;12.10;;;5.30;99.90;;;;;;4971319;28;20057;-91
2023/01/08 07:06:34;;;;;;;19.90;12.05;;;5.30;99.90;;;;;;4971354;28;20473;-91
2023/01/08 07:09:00;;;;;;;24.30;12.07;;;5.30;99.90;;;;;;4955266;28;20038;-90
2023/01/08 07:11:26;;;;;;;21.70;12.98;;;5.40;99.90;;;;;;4954848;28;20026;-90
2023/01/08 07:13:51;;;;;;;23.23;12.30;;;5.40;99.90;;;;;;4955497;28;20436;-91
2023/01/08 07:16:17;;;;;;;25.95;13.13;;;5.40;99.90;;;;;;4971329;28;20027;-91
2023/01/08 07:18:43;;;;;;;20.98;12.13;;;5.40;99.90;;;;;;4955614;28;20058;-91
2023/01/08 07:21:09;;;;;;;23.95;14.18;;;5.40;99.90;;;;;;4959388;28;20102;-92
2023/01/08 07:23:35;;;;;;;31.80;13.60;;;5.40;99.90;;;;;;4960606;28;20528;-91
2023/01/08 07:26:02;;;;;;;26.88;14.10;;;5.40;99.90;;;;;;4960203;28;20038;-90
2023/01/08 07:28:28;;;;;;;26.55;15.27;;;5.40;99.90;;;;;;5077737;28;20039;-92
2023/01/08 07:30:54;;;;;;;31.13;16.13;;;5.30;99.90;;;;;;4959465;28;20092;-92
2023/01/08 07:33:20;;;;;;;31.67;17.17;;;5.30;99.90;;;;;;4960317;28;20030;-90
2023/01/08 07:35:55;;;;;;;28.45;15.30;;;5.30;99.90;;;;;;4960027;28;20034;-92
2023/01/08 07:38:22;;;;;;;25.98;15.07;;;5.30;99.90;;;;;;4959954;28;20031;-92
2023/01/08 07:40:48;;;;;;;28.70;15.80;;;5.30;99.90;;;;;;5060718;28;20027;-90
2023/01/08 07:43:14;;;;;;;27.02;15.00;;;5.30;99.90;;;;;;4960010;28;20089;-90
2023/01/08 07:45:41;;;;;;;26.38;15.63;;;5.30;99.90;;;;;;4959373;28;20027;-91
2023/01/08 07:48:09;;;;;;;28.77;14.73;;;5.30;99.90;;;;;;4961596;28;20473;-90
2023/01/08 07:50:36;;;;;;;27.95;14.55;;;5.30;99.90;;;;;;4960657;28;20062;-92
2023/01/08 07:53:03;;;;;;;33.30;15.50;;;5.40;99.90;;;;;;4960342;28;20030;-91
2023/01/08 07:55:29;;;;;;;30.73;16.73;;;5.40;99.90;;;;;;4959468;28;20031;-91
2023/01/08 07:57:55;;;;;;;33.55;16.40;;;5.40;99.90;;;;;;4959549;28;20039;-92
2023/01/08 08:00:21;;;;;;;30.70;14.73;;;5.40;99.90;;;;;;4959902;28;20058;-93
2023/01/08 08:02:47;;;;;;;22.70;13.55;;;5.40;99.90;;;;;;4958853;28;20035;-91
2023/01/08 08:05:13;;;;;;;21.35;13.07;;;5.40;99.90;;;;;;4959216;28;20406;-91
2023/01/08 08:07:38;;;;;;;42.50;19.13;;;5.40;99.90;;;;;;4958388;28;20615;-90
2023/01/08 08:10:05;;;;;;;27.85;15.00;;;5.40;99.90;;;;;;4974691;28;20058;-90
2023/01/08 08:12:31;;;;;;;32.35;15.90;;;5.40;99.90;;;;;;4958484;28;20030;-90
2023/01/08 08:14:56;;;;;;;37.85;20.90;;;5.40;99.90;;;;;;4958894;28;20034;-91
2023/01/08 08:17:22;;;;;;;36.33;19.83;;;5.40;99.90;;;;;;4958739;28;20027;-91
2023/01/08 08:19:48;;;;;;;28.80;15.88;;;5.40;99.90;;;;;;4959576;28;20035;-91
2023/01/08 08:22:14;;;;;;;30.90;17.08;;;5.40;99.90;;;;;;4959129;28;20038;-92
2023/01/08 08:24:39;;;;;;;31.42;18.05;;;5.40;99.90;;;;;;4975037;28;20116;-91
2023/01/08 08:27:05;;;;;;;26.88;14.98;;;5.50;99.90;;;;;;4959069;28;20386;-91
2023/01/08 08:29:32;;;;;;;27.95;17.30;;;5.40;99.90;;;;;;4958947;28;20039;-93
2023/01/08 08:31:58;;;;;;;26.95;14.57;;;5.40;99.90;;;;;;4958495;28;20030;-90
2023/01/08 08:34:23;;;;;;;25.83;12.88;;;5.40;99.90;;;;;;4958270;28;20138;-92
2023/01/08 08:36:49;;;;;;;29.38;14.25;;;5.40;99.90;;;;;;4958232;28;20492;-90
2023/01/08 08:39:15;;;;;;;20.95;12.93;;;5.40;99.90;;;;;;4958363;28;20027;-91
2023/01/08 08:41:41;;;;;;;22.88;13.00;;;5.40;99.90;;;;;;4959100;28;20035;-91
2023/01/08 08:44:07;;;;;;;26.27;12.43;;;5.40;99.90;;;;;;4958479;28;20359;-92
2023/01/08 08:46:33;;;;;;;27.42;15.32;;;5.30;99.90;;;;;;4957926;28;20034;-92
2023/01/08 08:48:59;;;;;;;22.10;13.32;;;5.40;99.90;;;;;;4957887;28;20543;-91
2023/01/08 08:51:25;;;;;;;17.80;11.02;;;5.30;99.90;;;;;;4957491;28;20041;-91
2023/01/08 08:53:51;;;;;;;16.73;10.07;;;5.40;99.90;;;;;;4958897;28;20031;-92
2023/01/08 08:56:17;;;;;;;21.65;10.82;;;5.40;99.90;;;;;;4958508;28;20088;-92
2023/01/08 08:58:44;;;;;;;18.55;10.75;;;5.40;99.90;;;;;;4957753;28;20582;-92
2023/01/08 09:01:10;;;;;;;24.98;12.80;;;5.50;99.90;;;;;;4974185;28;20030;-93
2023/01/08 09:03:37;;;;;;;18.95;11.45;;;5.50;99.90;;;;;;4958183;28;20482;-92
2023/01/08 09:06:03;;;;;;;20.98;11.57;;;5.50;99.90;;;;;;4957883;28;20083;-92
2023/01/08 09:08:41;;;;;;;22.00;12.45;;;5.50;99.90;;;;;;4957734;28;20047;-92
2023/01/08 09:11:07;;;;;;;22.77;11.85;;;5.50;99.90;;;;;;4957500;28;20031;-93
2023/01/08 09:13:32;;;;;;;19.60;11.57;;;5.50;99.90;;;;;;4957674;28;20038;-94
2023/01/08 09:15:59;;;;;;;21.20;11.88;;;5.50;99.90;;;;;;4957543;28;20433;-93
2023/01/08 09:18:25;;;;;;;21.23;12.02;;;5.50;99.90;;;;;;4957121;28;20069;-93
2023/01/08 09:20:50;;;;;;;20.02;11.50;;;5.60;99.90;;;;;;4957275;28;20039;-92
2023/01/08 09:23:16;;;;;;;17.67;11.90;;;5.50;99.90;;;;;;4957717;28;20030;-93
2023/01/08 09:25:42;;;;;;;22.58;13.10;;;5.50;99.90;;;;;;4957498;28;20113;-93
2023/01/08 09:28:11;;;;;;;23.58;11.70;;;5.50;99.90;;;;;;4957344;28;20034;-92
2023/01/08 09:30:37;;;;;;;22.08;12.63;;;5.50;99.90;;;;;;4957474;28;20030;-93
2023/01/08 09:33:04;;;;;;;18.45;12.10;;;5.50;99.90;;;;;;5075147;28;20042;-93
2023/01/08 09:35:31;;;;;;;22.85;13.93;;;5.50;99.90;;;;;;5075114;28;20027;-92
2023/01/08 09:37:57;;;;;;;18.15;10.90;;;5.50;99.90;;;;;;4973309;28;20042;-93
2023/01/08 09:40:27;;;;;;;19.45;11.00;;;5.60;99.90;;;;;;4956893;28;20035;-93
2023/01/08 09:42:56;;;;;;;19.27;10.65;;;5.60;99.90;;;;;;4956944;28;20580;-92
2023/01/08 09:45:27;;;;;;;14.23;8.77;;;5.60;99.90;;;;;;5075011;28;20111;-93
2023/01/08 09:47:53;;;;;;;16.73;10.07;;;5.70;99.90;;;;;;4957763;28;20066;-93
2023/01/08 09:50:21;;;;;;;13.93;8.70;;;5.70;99.90;;;;;;4957278;28;20045;-92
2023/01/08 09:52:46;;;;;;;15.68;10.32;;;5.80;99.90;;;;;;4957483;28;20019;-93
2023/01/08 09:55:13;;;;;;;15.73;9.23;;;5.90;99.90;;;;;;4957316;28;20042;-93
2023/01/08 09:57:39;;;;;;;18.42;10.27;;;5.90;99.90;;;;;;4957474;28;20107;-93
2023/01/08 10:00:20;;;;;;;17.00;10.35;;;5.80;99.90;;;;;;4957002;28;20433;-93
2023/01/08 10:02:45;;;;;;;14.40;9.40;;;5.80;99.90;;;;;;4957141;28;20478;-93
2023/01/08 10:05:14;;;;;;;20.70;11.85;;;5.80;99.90;;;;;;4973107;28;20041;-93
2023/01/08 10:07:40;;;;;;;20.05;10.85;;;5.90;99.90;;;;;;4957432;28;20080;-93
2023/01/08 10:10:15;;;;;;;15.52;9.40;;;5.90;99.90;;;;;;4956870;28;20035;-93
2023/01/08 10:12:40;;;;;;;17.23;10.15;;;5.90;99.90;;;;;;4957237;28;20066;-94
2023/01/08 10:15:13;;;;;;;17.00;10.10;;;6.00;99.90;;;;;;4956904;28;20031;-92
2023/01/08 10:17:53;;;;;;;16.42;10.52;;;6.00;99.90;;;;;;4957227;28;20027;-92
2023/01/08 10:20:24;;;;;;;16.00;10.20;;;6.10;99.90;;;;;;4957126;28;20041;-92
2023/01/08 10:22:53;;;;;;;19.33;11.82;;;6.10;99.90;;;;;;5075029;28;20038;-94
2023/01/08 10:25:21;;;;;;;17.35;11.32;;;6.10;99.90;;;;;;4956984;28;20049;-93
2023/01/08 10:27:59;;;;;;;22.42;12.57;;;6.10;99.90;;;;;;4956956;28;20062;-92
2023/01/08 10:30:33;;;;;;;21.13;12.25;;;6.10;99.90;;;;;;4972779;28;20117;-91
2023/01/08 10:33:10;;;;;;;15.98;9.88;;;6.20;99.90;;;;;;4956866;28;20023;-92
2023/01/08 10:35:41;;;;;;;19.90;11.15;;;6.20;99.90;;;;;;4956932;28;20031;-92
2023/01/08 10:38:26;;;;;;;18.88;11.25;;;6.10;99.90;;;;;;4956713;28;20035;-93
2023/01/08 10:40:52;;;;;;;18.25;12.00;;;6.20;99.90;;;;;;4973669;28;20039;-93
2023/01/08 10:43:30;;;;;;;18.70;12.38;;;6.20;99.90;;;;;;4956473;28;20029;-92
2023/01/08 10:46:05;;;;;;;14.13;10.15;;;6.20;99.90;;;;;;5074085;28;20035;-92
2023/01/08 10:48:34;;;;;;;17.45;10.52;;;6.20;99.90;;;;;;4956571;28;20053;-93
2023/01/08 10:51:14;;;;;;;18.38;11.38;;;6.20;99.90;;;;;;4956436;28;20035;-92
2023/01/08 10:53:40;;;;;;;17.90;10.02;;;6.20;99.90;;;;;;4957137;28;20045;-92
2023/01/08 10:56:16;;;;;;;18.52;12.65;;;6.20;99.90;;;;;;4960286;28;20109;-92
2023/01/08 10:58:42;;;;;;;21.73;11.90;;;6.20;99.90;;;;;;4976047;28;20037;-93
2023/01/08 11:04:49;;;;;;;16.77;10.98;;;6.20;99.90;;;;;;4989520;28;20042;-91
2023/01/08 11:07:47;;;;;;;17.75;11.98;;;6.20;99.90;;;;;;4959263;28;20027;-91
2023/01/08 11:10:22;;;;;;;35.17;19.52;;;6.20;99.90;;;;;;4959320;28;20031;-93
2023/01/08 11:12:57;;;;;;;21.63;12.77;;;6.30;99.90;;;;;;4959520;28;20027;-92
2023/01/08 11:15:32;;;;;;;20.45;12.85;;;6.30;99.90;;;;;;4959663;28;20434;-91
2023/01/08 11:18:27;;;;;;;21.00;12.75;;;6.30;99.90;;;;;;4975493;28;20034;-92
2023/01/08 11:21:09;;;;;;;21.05;13.55;;;6.30;99.90;;;;;;4984258;28;20103;-92
2023/01/08 11:23:35;;;;;;;20.98;14.32;;;6.30;99.90;;;;;;4959716;28;20045;-93
2023/01/08 11:26:12;;;;;;;21.90;15.13;;;6.40;99.90;;;;;;4959321;28;20084;-94
2023/01/08 11:28:45;;;;;;;32.17;16.60;;;6.40;99.90;;;;;;4959303;28;20035;-91
2023/01/08 11:31:17;;;;;;;22.70;14.25;;;6.50;99.90;;;;;;4959229;28;20062;-93
2023/01/08 11:33:46;;;;;;;20.30;13.80;;;6.60;99.90;;;;;;4975084;28;20038;-93
2023/01/08 11:36:26;;;;;;;21.63;15.70;;;6.60;99.90;;;;;;4959150;28;20160;-93
2023/01/08 11:38:52;;;;;;;19.98;12.65;;;6.60;99.90;;;;;;4958806;28;20034;-93
2023/01/08 11:41:55;;;;;;;21.88;13.57;;;6.70;99.90;;;;;;4959141;28;20027;-93
2023/01/08 11:44:32;;;;;;;18.80;12.18;;;6.70;99.90;;;;;;5060392;28;20031;-92
2023/01/08 11:47:23;;;;;;;14.77;10.82;;;6.80;99.90;;;;;;4958928;28;20034;-92
2023/01/08 11:50:20;;;;;;;16.95;11.23;;;6.90;99.90;;;;;;5060391;28;20031;-92
2023/01/08 11:53:13;;;;;;;16.20;11.23;;;7.00;99.90;;;;;;4977664;28;20443;-93
2023/01/08 11:55:59;;;;;;;19.27;11.25;;;7.00;99.90;;;;;;5059757;28;20031;-92
2023/01/08 11:58:37;;;;;;;15.38;9.60;;;7.10;99.90;;;;;;4958770;28;20027;-93
2023/01/08 12:01:27;;;;;;;13.02;8.73;;;7.10;99.90;;;;;;4958553;28;20088;-93
2023/01/08 12:03:55;;;;;;;15.77;11.07;;;7.30;99.90;;;;;;4959978;28;20030;-91
2023/01/08 12:06:58;;;;;;;13.77;9.75;;;7.50;99.90;;;;;;4959143;28;20027;-91
2023/01/08 12:09:45;;;;;;;13.65;9.80;;;7.40;99.90;;;;;;4958581;28;20083;-93
2023/01/08 12:12:35;;;;;;;11.90;9.00;;;7.50;99.90;;;;;;4958503;28;20474;-92
2023/01/08 12:15:39;;;;;;;13.25;8.30;;;7.60;99.90;;;;;;5059790;28;20031;-93
2023/01/08 12:18:33;;;;;;;11.85;7.95;;;7.60;99.90;;;;;;4973759;28;20043;-92
2023/01/08 12:25:19;;;;;;;11.48;7.93;;;7.50;99.90;;;;;;4975743;28;20042;-92
2023/01/08 12:27:53;;;;;;;11.50;8.23;;;7.30;99.90;;;;;;4958297;28;20023;-93
2023/01/08 12:30:28;;;;;;;11.77;8.70;;;7.40;99.90;;;;;;4958107;28;20038;-93
2023/01/08 12:33:17;;;;;;;11.35;7.88;;;7.30;99.90;;;;;;4958019;28;20031;-92
2023/01/08 12:35:48;;;;;;;10.73;8.45;;;7.40;99.90;;;;;;4974183;28;20489;-92
2023/01/08 12:38:30;;;;;;;11.70;9.25;;;7.30;99.90;;;;;;4958180;28;20057;-91
2023/01/08 12:41:08;;;;;;;14.07;8.50;;;7.40;99.90;;;;;;4973903;28;20031;-91
2023/01/08 12:43:56;;;;;;;12.30;9.00;;;7.40;99.90;;;;;;4957698;28;20077;-91
2023/01/08 12:46:23;;;;;;;20.20;11.88;;;7.40;99.90;;;;;;4964012;28;20043;-92
2023/01/08 12:48:51;;;;;;;15.55;10.52;;;7.50;99.90;;;;;;4957804;28;20046;-91
2023/01/08 12:51:35;;;;;;;16.20;9.75;;;7.50;99.90;;;;;;4957988;28;20102;-91
2023/01/08 12:54:07;;;;;;;12.80;9.00;;;7.40;99.90;;;;;;4957683;28;20031;-92
2023/01/08 13:00:29;;;;;;;12.13;8.30;;;7.20;99.90;;;;;;4975204;28;20559;-92
2023/01/08 13:02:59;;;;;;;14.50;10.47;;;7.20;99.90;;;;;;4957522;28;20034;-92
2023/01/08 13:05:24;;;;;;;17.30;10.80;;;7.20;99.90;;;;;;4957530;28;20054;-92